createdAt,value
2023-02-22T00:00:18.089Z,16.80
2023-02-22T00:02:56.237Z,17.00
2023-02-22T00:05:28.830Z,17.34
2023-02-22T00:08:00.378Z,16.69
2023-02-22T00:10:32.046Z,16.75
2023-02-22T00:13:05.981Z,17.05
2023-02-22T00:15:37.591Z,17.25
2023-02-22T00:18:12.012Z,17.11
2023-02-22T00:20:43.599Z,16.40
2023-02-22T00:23:18.546Z,16.72
2023-02-22T00:25:50.802Z,15.93
2023-02-22T00:28:22.913Z,15.99
2023-02-22T00:30:54.572Z,16.34
2023-02-22T00:33:26.185Z,16.35
2023-02-22T00:35:58.610Z,15.94
2023-02-22T00:38:35.810Z,16.03
2023-02-22T00:41:08.115Z,16.06
2023-02-22T00:43:39.662Z,15.72
2023-02-22T00:46:13.720Z,15.68
2023-02-22T00:48:45.367Z,14.93
2023-02-22T00:51:17.282Z,14.93
2023-02-22T00:53:49.122Z,14.88
2023-02-22T00:56:20.893Z,14.67
2023-02-22T00:58:52.527Z,15.02
2023-02-22T01:01:24.419Z,14.74
2023-02-22T01:03:56.127Z,15.01
2023-02-22T01:06:28.144Z,14.35
2023-02-22T01:08:59.963Z,14.21
2023-02-22T01:11:31.638Z,13.95
2023-02-22T01:14:03.298Z,14.20
2023-02-22T01:16:35.631Z,13.98
2023-02-22T01:19:07.394Z,14.61
2023-02-22T01:21:40.734Z,15.05
2023-02-22T01:24:12.613Z,14.78
2023-02-22T01:26:50.641Z,14.57
2023-02-22T01:29:22.348Z,14.13
2023-02-22T01:31:56.359Z,13.94
2023-02-22T01:34:28.675Z,13.58
2023-02-22T01:37:00.796Z,13.06
2023-02-22T01:39:33.047Z,13.72
2023-02-22T01:42:04.676Z,13.42
2023-02-22T01:44:38.865Z,13.58
2023-02-22T01:47:10.425Z,13.47
2023-02-22T01:49:47.700Z,13.78
2023-02-22T01:52:21.514Z,13.74
2023-02-22T01:54:58.592Z,13.95
2023-02-22T01:57:36.689Z,14.23
2023-02-22T02:00:13.591Z,14.63
2023-02-22T02:02:51.022Z,14.58
2023-02-22T02:05:29.151Z,15.06
2023-02-22T02:08:13.322Z,14.87
2023-02-22T02:10:48.542Z,15.27
2023-02-22T02:13:20.568Z,15.62
2023-02-22T02:15:56.847Z,15.06
2023-02-22T02:18:29.782Z,14.57
2023-02-22T02:21:39.182Z,14.47
2023-02-22T02:24:32.723Z,14.74
2023-02-22T02:27:27.485Z,14.96
2023-02-22T02:30:24.010Z,15.70
2023-02-22T02:33:01.491Z,15.00
2023-02-22T02:35:45.290Z,15.24
2023-02-22T02:38:38.506Z,15.09
2023-02-22T02:41:18.624Z,15.21
2023-02-22T02:44:07.900Z,15.32
2023-02-22T02:46:58.149Z,15.40
2023-02-22T02:49:51.601Z,15.12
2023-02-22T02:52:27.286Z,15.82
2023-02-22T02:55:01.735Z,15.09
2023-02-22T02:57:33.413Z,15.67
2023-02-22T03:00:07.811Z,15.70
2023-02-22T03:03:02.326Z,15.20
2023-02-22T03:05:52.446Z,15.62
2023-02-22T03:08:47.717Z,15.92
2023-02-22T03:11:30.518Z,15.09
2023-02-22T03:14:22.311Z,15.18
2023-02-22T03:16:57.040Z,15.62
2023-02-22T03:20:03.967Z,15.42
2023-02-22T03:22:55.635Z,15.34
2023-02-22T03:25:43.351Z,15.88
2023-02-22T03:28:19.698Z,15.77
2023-02-22T03:31:06.035Z,15.79
2023-02-22T03:33:48.873Z,16.08
2023-02-22T03:36:34.002Z,15.97
2023-02-22T03:39:13.693Z,15.40
2023-02-22T03:41:49.679Z,14.77
2023-02-22T03:44:27.536Z,15.44
2023-02-22T03:47:07.385Z,15.88
2023-02-22T03:49:53.629Z,15.68
2023-02-22T03:52:25.659Z,16.33
2023-02-22T03:54:57.526Z,15.70
2023-02-22T03:57:35.429Z,16.65
2023-02-22T04:00:12.361Z,15.74
2023-02-22T04:02:49.351Z,15.44
2023-02-22T04:05:27.161Z,15.92
2023-02-22T04:07:58.928Z,15.92
2023-02-22T04:10:32.379Z,15.84
2023-02-22T04:13:05.499Z,16.43
2023-02-22T04:15:38.408Z,16.45
2023-02-22T04:18:13.958Z,15.96
2023-02-22T04:20:46.148Z,16.19
2023-02-22T04:23:25.905Z,15.79
2023-02-22T04:25:57.846Z,16.43
2023-02-22T04:28:29.511Z,15.62
2023-02-22T04:31:11.884Z,15.64
2023-02-22T04:33:44.411Z,15.70
2023-02-22T04:36:19.708Z,15.00
2023-02-22T04:38:51.666Z,15.11
2023-02-22T04:41:25.342Z,16.33
2023-02-22T04:43:57.506Z,15.91
2023-02-22T04:46:30.900Z,16.12
2023-02-22T04:49:02.907Z,14.83
2023-02-22T04:51:37.423Z,15.60
2023-02-22T04:54:14.801Z,16.31
2023-02-22T04:56:50.027Z,16.30
2023-02-22T04:59:21.688Z,16.26
2023-02-22T05:01:59.598Z,15.98
2023-02-22T05:04:31.173Z,16.89
2023-02-22T05:07:02.824Z,16.93
2023-02-22T05:09:34.462Z,17.12
2023-02-22T05:12:06.344Z,17.48
2023-02-22T05:14:37.977Z,16.86
2023-02-22T05:17:09.644Z,16.92
2023-02-22T05:19:41.254Z,17.24
2023-02-22T05:22:12.908Z,18.41
2023-02-22T05:24:44.530Z,18.11
2023-02-22T05:27:16.127Z,18.06
2023-02-22T05:29:47.649Z,18.04
2023-02-22T05:32:19.332Z,18.35
2023-02-22T05:34:50.959Z,17.55
2023-02-22T05:37:22.571Z,18.63
2023-02-22T05:39:54.190Z,18.84
2023-02-22T05:42:25.733Z,19.45
2023-02-22T05:44:57.299Z,19.20
2023-02-22T05:47:29.099Z,19.68
2023-02-22T05:50:00.768Z,19.13
2023-02-22T05:52:32.436Z,19.65
2023-02-22T05:55:05.795Z,19.84
2023-02-22T05:57:37.383Z,20.15
2023-02-22T06:00:10.682Z,19.48
2023-02-22T06:02:45.396Z,19.29
2023-02-22T06:05:17.042Z,20.00
2023-02-22T06:07:48.830Z,20.10
2023-02-22T06:10:21.142Z,20.01
2023-02-22T06:12:54.034Z,19.75
2023-02-22T06:15:27.383Z,20.21
2023-02-22T06:17:59.252Z,20.44
2023-02-22T06:20:31.241Z,20.56
2023-02-22T06:23:03.005Z,19.71
2023-02-22T06:25:34.648Z,20.48
2023-02-22T06:28:06.262Z,19.97
2023-02-22T06:30:37.969Z,19.91
2023-02-22T06:33:10.240Z,20.14
2023-02-22T06:35:41.878Z,19.98
2023-02-22T06:38:25.300Z,20.15
2023-02-22T06:40:57.283Z,20.61
2023-02-22T06:43:28.904Z,20.31
2023-02-22T06:46:00.495Z,20.38
2023-02-22T06:48:32.300Z,19.70
2023-02-22T06:51:04.531Z,20.76
2023-02-22T06:53:36.376Z,20.92
2023-02-22T06:56:08.053Z,21.22
2023-02-22T06:58:40.119Z,20.71
2023-02-22T07:01:12.294Z,21.05
2023-02-22T07:03:44.377Z,21.45
2023-02-22T07:06:16.375Z,22.00
2023-02-22T07:08:48.857Z,21.91
2023-02-22T07:11:20.540Z,19.95
2023-02-22T07:13:52.189Z,20.15
2023-02-22T07:16:23.777Z,19.73
2023-02-22T07:18:55.428Z,20.18
2023-02-22T07:21:29.112Z,19.43
2023-02-22T07:24:00.759Z,20.18
2023-02-22T07:26:38.886Z,20.71
2023-02-22T07:29:10.462Z,20.01
2023-02-22T07:31:42.035Z,19.87
2023-02-22T07:34:13.867Z,20.30
2023-02-22T07:36:45.638Z,20.10
2023-02-22T07:39:17.302Z,19.97
2023-02-22T07:41:48.922Z,19.88
2023-02-22T07:44:27.565Z,20.19
2023-02-22T07:46:59.228Z,20.39
2023-02-22T07:49:30.882Z,19.89
2023-02-22T07:52:02.746Z,19.51
2023-02-22T07:54:34.339Z,20.23
2023-02-22T07:57:05.928Z,20.32
2023-02-22T07:59:37.490Z,19.97
2023-02-22T08:02:17.086Z,20.06
2023-02-22T08:04:48.688Z,20.49
2023-02-22T08:07:20.280Z,19.55
2023-02-22T08:09:51.921Z,19.37
2023-02-22T08:12:23.506Z,19.41
2023-02-22T08:14:55.058Z,19.60
2023-02-22T08:17:26.606Z,19.48
2023-02-22T08:19:58.164Z,19.18
2023-02-22T08:22:29.726Z,19.05
2023-02-22T08:25:01.290Z,19.05
2023-02-22T08:27:32.873Z,19.55
2023-02-22T08:30:05.537Z,19.49
2023-02-22T08:32:37.160Z,20.11
2023-02-22T08:35:09.260Z,19.69
2023-02-22T08:37:44.777Z,19.04
2023-02-22T08:40:19.260Z,19.82
2023-02-22T08:42:51.113Z,18.89
2023-02-22T08:45:23.188Z,18.43
2023-02-22T08:47:55.133Z,17.59
2023-02-22T08:50:29.893Z,17.72
2023-02-22T08:53:03.598Z,18.88
2023-02-22T08:55:38.567Z,19.07
2023-02-22T08:58:10.768Z,18.20
2023-02-22T09:00:42.943Z,17.68
2023-02-22T09:03:15.568Z,17.69
2023-02-22T09:05:47.301Z,17.90
2023-02-22T09:08:19.679Z,18.40
2023-02-22T09:10:52.013Z,18.42
2023-02-22T09:13:23.548Z,17.89
2023-02-22T09:15:55.179Z,18.63
2023-02-22T09:18:39.033Z,18.40
2023-02-22T09:21:15.333Z,18.25
2023-02-22T09:23:47.964Z,18.59
2023-02-22T09:26:19.570Z,18.36
2023-02-22T09:28:51.219Z,17.31
2023-02-22T09:31:23.108Z,17.78
2023-02-22T09:33:54.929Z,17.66
2023-02-22T09:36:26.529Z,18.71
2023-02-22T09:38:58.121Z,18.64
2023-02-22T09:41:54.377Z,19.13
2023-02-22T09:45:12.290Z,18.61
2023-02-22T09:47:50.553Z,18.85
2023-02-22T09:50:30.318Z,18.35
2023-02-22T09:53:20.228Z,18.39
2023-02-22T09:55:54.042Z,18.56
2023-02-22T09:58:40.748Z,18.98
2023-02-22T10:01:16.605Z,18.69
2023-02-22T10:04:01.238Z,18.59
2023-02-22T10:06:35.389Z,18.45
2023-02-22T10:09:06.954Z,18.95
2023-02-22T10:12:10.089Z,19.02
2023-02-22T10:14:44.720Z,19.11
2023-02-22T10:17:39.732Z,19.39
2023-02-22T10:20:23.969Z,20.46
2023-02-22T10:23:32.143Z,20.67
2023-02-22T10:26:23.098Z,19.61
2023-02-22T10:29:02.805Z,19.82
2023-02-22T10:31:43.977Z,20.67
2023-02-22T10:34:26.245Z,21.62
2023-02-22T10:37:24.715Z,20.93
2023-02-22T10:40:18.400Z,21.43
2023-02-22T10:42:50.374Z,21.47
2023-02-22T10:45:26.820Z,21.61
2023-02-22T10:48:05.581Z,22.69
2023-02-22T10:50:42.133Z,22.15
2023-02-22T10:53:14.779Z,22.39
2023-02-22T10:56:06.601Z,22.51
2023-02-22T10:59:03.132Z,23.59
2023-02-22T11:01:39.491Z,23.98
2023-02-22T11:04:20.738Z,23.82
2023-02-22T11:07:01.289Z,24.24
2023-02-22T11:09:49.633Z,24.67
2023-02-22T11:12:32.124Z,24.72
2023-02-22T11:15:28.414Z,25.27
2023-02-22T11:18:00.124Z,25.13
2023-02-22T11:20:39.280Z,25.18
2023-02-22T11:23:11.030Z,25.07
2023-02-22T11:25:43.120Z,25.03
2023-02-22T11:28:28.004Z,25.19
2023-02-22T11:31:13.917Z,24.96
2023-02-22T11:34:00.127Z,25.25
2023-02-22T11:36:37.920Z,26.29
2023-02-22T11:39:24.759Z,25.60
2023-02-22T11:41:56.736Z,26.03
2023-02-22T11:44:31.612Z,26.60
2023-02-22T11:47:03.593Z,26.42
2023-02-22T11:49:44.071Z,26.21
2023-02-22T11:52:39.295Z,26.03
2023-02-22T11:55:36.341Z,26.10
2023-02-22T11:58:48.406Z,26.26
2023-02-22T12:01:37.266Z,26.48
2023-02-22T12:04:31.926Z,25.89
2023-02-22T12:07:18.666Z,25.61
2023-02-22T12:10:00.644Z,25.43
2023-02-22T12:12:41.413Z,25.44
2023-02-22T12:15:28.908Z,25.46
2023-02-22T12:18:09.983Z,26.44
2023-02-22T12:20:51.373Z,26.31
2023-02-22T12:23:45.821Z,26.69
2023-02-22T12:26:29.515Z,26.70
2023-02-22T12:29:11.398Z,27.11
2023-02-22T12:31:49.838Z,26.08
2023-02-22T12:34:27.549Z,26.46
2023-02-22T12:37:23.958Z,26.22
2023-02-22T12:40:06.004Z,26.65
2023-02-22T12:42:55.642Z,26.97
2023-02-22T12:45:41.637Z,26.66
2023-02-22T12:48:15.913Z,26.39
2023-02-22T12:50:55.448Z,26.39
2023-02-22T12:53:44.956Z,26.18
2023-02-22T12:56:32.684Z,26.42
2023-02-22T12:59:20.763Z,26.53
2023-02-22T13:02:00.561Z,26.37
2023-02-22T13:04:32.153Z,25.32
2023-02-22T13:07:29.795Z,24.97
2023-02-22T13:10:36.583Z,23.77
2023-02-22T13:13:51.001Z,22.65
2023-02-22T13:16:51.685Z,20.74
2023-02-22T13:19:42.937Z,21.39
2023-02-22T13:22:34.966Z,21.14
2023-02-22T13:25:27.717Z,21.04
2023-02-22T13:28:17.363Z,20.85
2023-02-22T13:31:14.930Z,20.81
2023-02-22T13:34:09.866Z,21.15
2023-02-22T13:36:59.541Z,22.95
2023-02-22T13:39:49.478Z,28.05
2023-02-22T13:42:47.346Z,31.55
2023-02-22T13:45:40.673Z,31.23
2023-02-22T13:48:32.329Z,27.98
2023-02-22T13:51:13.686Z,24.97
2023-02-22T13:53:55.254Z,24.23
2023-02-22T13:56:28.720Z,24.86
2023-02-22T13:59:03.534Z,23.80
2023-02-22T14:01:48.164Z,23.44
2023-02-22T14:04:29.334Z,22.87
2023-02-22T14:07:21.838Z,21.91
2023-02-22T14:09:56.220Z,20.65
2023-02-22T14:12:30.568Z,20.63
2023-02-22T14:15:26.534Z,19.21
2023-02-22T14:18:03.453Z,18.50
2023-02-22T14:20:38.006Z,18.78
2023-02-22T14:23:33.997Z,19.11
2023-02-22T14:26:14.932Z,19.16
2023-02-22T14:29:00.648Z,19.14
2023-02-22T14:31:54.839Z,19.17
2023-02-22T14:34:48.030Z,19.34
2023-02-22T14:37:35.807Z,19.34
2023-02-22T14:40:28.426Z,19.19
2023-02-22T14:43:20.399Z,19.25
2023-02-22T14:45:55.650Z,18.99
2023-02-22T14:48:41.278Z,19.36
2023-02-22T14:51:22.291Z,19.11
2023-02-22T14:54:00.106Z,19.01
2023-02-22T14:56:38.718Z,19.19
2023-02-22T14:59:18.991Z,18.93
2023-02-22T15:02:11.957Z,18.83
2023-02-22T15:04:54.992Z,18.82
2023-02-22T15:07:30.110Z,19.12
2023-02-22T15:10:06.650Z,19.54
2023-02-22T15:12:38.293Z,19.79
2023-02-22T15:15:18.626Z,21.57
2023-02-22T15:17:58.466Z,23.78
2023-02-22T15:20:30.547Z,24.09
2023-02-22T15:23:02.339Z,24.82
2023-02-22T15:25:34.163Z,25.68
2023-02-22T15:28:06.100Z,25.48
2023-02-22T15:30:37.773Z,25.59
2023-02-22T15:33:19.602Z,26.48
2023-02-22T15:35:57.770Z,25.74
2023-02-22T15:38:30.972Z,26.02
2023-02-22T15:41:05.829Z,25.39
2023-02-22T15:43:37.384Z,25.34
2023-02-22T15:46:09.514Z,25.46
2023-02-22T15:48:41.117Z,25.54
2023-02-22T15:51:15.300Z,25.19
2023-02-22T15:53:50.895Z,25.35
2023-02-22T15:56:29.257Z,25.31
2023-02-22T15:59:09.202Z,25.15
2023-02-22T16:01:45.367Z,25.62
2023-02-22T16:04:23.737Z,25.54
2023-02-22T16:07:08.534Z,26.54
2023-02-22T16:09:46.666Z,25.28
2023-02-22T16:12:21.232Z,25.10
2023-02-22T16:14:52.843Z,25.68
2023-02-22T16:17:44.572Z,25.04
2023-02-22T16:20:21.203Z,25.89
2023-02-22T16:22:57.980Z,25.37
2023-02-22T16:25:33.612Z,25.27
2023-02-22T16:28:26.847Z,25.82
2023-02-22T16:30:58.842Z,24.98
2023-02-22T16:33:30.506Z,25.69
2023-02-22T16:36:06.951Z,24.88
2023-02-22T16:38:38.806Z,25.03
2023-02-22T16:41:10.508Z,24.61
2023-02-22T16:43:43.310Z,25.49
2023-02-22T16:46:15.077Z,25.02
2023-02-22T16:48:46.829Z,25.46
2023-02-22T16:51:26.649Z,25.29
2023-02-22T16:53:58.494Z,25.19
2023-02-22T16:56:31.190Z,24.01
2023-02-22T16:59:11.213Z,24.73
2023-02-22T17:01:43.457Z,24.28
2023-02-22T17:04:26.074Z,24.98
2023-02-22T17:06:57.690Z,24.98
2023-02-22T17:09:29.288Z,24.96
2023-02-22T17:12:02.365Z,25.95
2023-02-22T17:14:35.936Z,26.61
2023-02-22T17:17:11.875Z,27.30
2023-02-22T17:19:43.715Z,26.81
2023-02-22T17:22:21.430Z,26.53
2023-02-22T17:24:53.113Z,26.30
2023-02-22T17:27:24.638Z,24.30
2023-02-22T17:29:56.221Z,25.43
2023-02-22T17:32:27.950Z,25.12
2023-02-22T17:35:02.405Z,25.57
2023-02-22T17:37:34.124Z,25.83
2023-02-22T17:40:06.315Z,25.56
2023-02-22T17:42:37.917Z,26.60
2023-02-22T17:45:12.013Z,25.70
2023-02-22T17:47:44.100Z,26.33
2023-02-22T17:50:16.537Z,26.66
2023-02-22T17:52:49.449Z,26.32
2023-02-22T17:55:22.173Z,26.26
2023-02-22T17:57:57.323Z,25.98
2023-02-22T18:00:34.768Z,25.58
2023-02-22T18:03:09.839Z,27.04
2023-02-22T18:05:55.659Z,25.94
2023-02-22T18:08:29.599Z,26.38
2023-02-22T18:11:04.228Z,26.11
2023-02-22T18:13:35.970Z,26.16
2023-02-22T18:16:10.980Z,25.97
2023-02-22T18:18:42.636Z,26.17
2023-02-22T18:21:14.398Z,25.88
2023-02-22T18:23:46.156Z,27.41
2023-02-22T18:26:20.328Z,28.07
2023-02-22T18:28:52.524Z,28.54
2023-02-22T18:31:24.137Z,29.10
2023-02-22T18:33:56.312Z,28.93
2023-02-22T18:36:28.471Z,27.67
2023-02-22T18:39:00.482Z,29.85
2023-02-22T18:41:32.159Z,32.85
2023-02-22T18:44:05.033Z,29.98
2023-02-22T18:46:36.884Z,27.59
2023-02-22T18:49:11.879Z,28.52
2023-02-22T18:51:43.531Z,29.23
2023-02-22T18:54:15.241Z,29.09
2023-02-22T18:56:46.957Z,30.25
2023-02-22T18:59:18.696Z,29.64
2023-02-22T19:01:50.554Z,30.56
2023-02-22T19:04:22.134Z,28.94
2023-02-22T19:06:55.186Z,29.07
2023-02-22T19:09:26.881Z,28.97
2023-02-22T19:11:58.511Z,28.11
2023-02-22T19:14:30.195Z,28.83
2023-02-22T19:17:02.015Z,29.69
2023-02-22T19:19:34.813Z,29.17
2023-02-22T19:22:06.477Z,31.23
2023-02-22T19:24:38.117Z,32.45
2023-02-22T19:27:11.102Z,30.74
2023-02-22T19:29:42.783Z,31.16
2023-02-22T19:32:14.445Z,30.79
2023-02-22T19:34:46.883Z,29.95
2023-02-22T19:37:19.231Z,30.30
2023-02-22T19:39:50.894Z,29.37
2023-02-22T19:42:22.629Z,29.65
2023-02-22T19:44:54.204Z,29.99
2023-02-22T19:47:25.931Z,30.83
2023-02-22T19:49:59.250Z,31.65
2023-02-22T19:52:31.900Z,33.34
2023-02-22T19:55:03.570Z,31.27
2023-02-22T19:57:35.213Z,31.33
2023-02-22T20:00:07.575Z,30.44
2023-02-22T20:02:42.861Z,30.50
2023-02-22T20:05:14.420Z,31.45
2023-02-22T20:07:46.092Z,30.95
2023-02-22T20:10:17.989Z,30.64
2023-02-22T20:12:49.853Z,30.39
2023-02-22T20:15:21.684Z,31.45
2023-02-22T20:17:54.571Z,33.37
2023-02-22T20:20:26.653Z,33.32
2023-02-22T20:22:58.861Z,32.12
2023-02-22T20:25:30.581Z,31.73
2023-02-22T20:28:02.403Z,31.15
2023-02-22T20:30:37.146Z,31.64
2023-02-22T20:33:09.012Z,32.06
2023-02-22T20:35:40.877Z,31.97
2023-02-22T20:38:13.918Z,32.68
2023-02-22T20:40:45.533Z,34.12
2023-02-22T20:43:17.120Z,31.43
2023-02-22T20:45:48.700Z,32.18
2023-02-22T20:48:20.254Z,32.07
2023-02-22T20:50:51.869Z,30.83
2023-02-22T20:53:23.917Z,31.72
2023-02-22T20:55:55.489Z,31.82
2023-02-22T20:58:27.496Z,32.49
2023-02-22T21:01:07.891Z,32.57
2023-02-22T21:03:41.144Z,31.83
2023-02-22T21:06:15.190Z,31.68
2023-02-22T21:08:54.858Z,32.03
2023-02-22T21:11:29.596Z,31.33
2023-02-22T21:14:02.405Z,31.82
2023-02-22T21:16:36.774Z,31.72
2023-02-22T21:19:11.942Z,31.11
2023-02-22T21:21:43.586Z,31.11
2023-02-22T21:24:15.434Z,30.36
2023-02-22T21:26:47.064Z,29.96
2023-02-22T21:29:19.445Z,30.76
2023-02-22T21:31:51.170Z,29.71
2023-02-22T21:34:22.802Z,30.87
2023-02-22T21:36:54.517Z,30.97
2023-02-22T21:39:26.196Z,30.58
2023-02-22T21:41:57.902Z,32.07
2023-02-22T21:44:29.609Z,32.39
2023-02-22T21:47:01.265Z,33.30
2023-02-22T21:49:32.993Z,33.60
2023-02-22T21:52:04.707Z,33.79
2023-02-22T21:54:36.452Z,35.01
2023-02-22T21:57:08.996Z,34.14
2023-02-22T21:59:40.548Z,33.98
2023-02-22T22:02:12.150Z,35.91
2023-02-22T22:04:43.740Z,33.15
2023-02-22T22:07:15.335Z,32.73
2023-02-22T22:09:46.906Z,34.10
2023-02-22T22:12:18.864Z,34.33
2023-02-22T22:14:52.600Z,34.24
2023-02-22T22:17:24.237Z,36.08
2023-02-22T22:19:55.803Z,38.72
2023-02-22T22:22:27.379Z,37.87
2023-02-22T22:24:59.000Z,37.93
2023-02-22T22:27:30.729Z,38.24
2023-02-22T22:30:02.302Z,37.04
2023-02-22T22:32:34.389Z,36.01
2023-02-22T22:35:08.690Z,35.69
2023-02-22T22:37:42.368Z,36.24
2023-02-22T22:40:14.238Z,35.44
2023-02-22T22:42:46.370Z,35.57
2023-02-22T22:45:17.993Z,35.11
2023-02-22T22:47:49.572Z,34.37
2023-02-22T22:50:21.172Z,34.53
2023-02-22T22:52:53.649Z,34.12
2023-02-22T22:55:25.305Z,36.10
2023-02-22T22:57:56.884Z,34.64
2023-02-22T23:00:28.462Z,34.39
2023-02-22T23:03:00.603Z,34.69
2023-02-22T23:05:40.089Z,34.09
2023-02-22T23:08:11.722Z,34.96
2023-02-22T23:10:43.291Z,34.71
2023-02-22T23:13:15.021Z,33.75
2023-02-22T23:15:46.858Z,33.47
2023-02-22T23:18:18.508Z,33.66
2023-02-22T23:20:50.189Z,32.69
2023-02-22T23:23:24.110Z,34.09
2023-02-22T23:26:08.311Z,33.85
2023-02-22T23:28:41.329Z,35.27
2023-02-22T23:31:16.296Z,33.60
2023-02-22T23:33:47.998Z,35.52
2023-02-22T23:36:20.245Z,35.04
2023-02-22T23:38:51.884Z,33.56
2023-02-22T23:41:23.473Z,35.60
2023-02-22T23:43:55.656Z,35.37
2023-02-22T23:46:27.345Z,34.96
2023-02-22T23:48:58.981Z,36.05
2023-02-22T23:51:31.540Z,36.08
2023-02-22T23:54:03.185Z,33.85
2023-02-22T23:56:36.987Z,35.55
2023-02-22T23:59:10.737Z,36.07
